createdAt,value
2019-06-27T00:00:33.889Z,73.69
2019-06-27T00:03:04.470Z,73.52
2019-06-27T00:05:34.804Z,75.08
2019-06-27T00:08:06.457Z,75.04
2019-06-27T00:10:36.613Z,74.97
2019-06-27T00:13:06.864Z,74.99
2019-06-27T00:15:37.023Z,75.59
2019-06-27T00:18:07.169Z,75.73
2019-06-27T00:20:37.300Z,76.19
2019-06-27T00:23:08.647Z,75.04
2019-06-27T00:25:38.750Z,75.15
2019-06-27T00:28:08.911Z,75.08
2019-06-27T00:30:39.008Z,75.02
2019-06-27T00:33:09.161Z,75.10
2019-06-27T00:35:39.271Z,75.46
2019-06-27T00:38:09.492Z,75.08
2019-06-27T00:40:39.660Z,75.50
2019-06-27T00:43:09.761Z,75.43
2019-06-27T00:45:40.047Z,74.87
2019-06-27T00:48:10.172Z,74.99
2019-06-27T00:50:40.304Z,75.22
2019-06-27T00:53:11.562Z,75.04
2019-06-27T00:55:41.813Z,75.39
2019-06-27T00:58:12.076Z,74.76
2019-06-27T01:00:42.686Z,75.53
2019-06-27T01:03:12.832Z,75.42
2019-06-27T01:05:43.084Z,75.24
2019-06-27T01:08:13.229Z,75.17
2019-06-27T01:10:43.596Z,75.25
2019-06-27T01:13:13.708Z,74.12
2019-06-27T01:15:44.983Z,74.64
2019-06-27T01:18:15.395Z,75.00
2019-06-27T01:20:45.505Z,75.26
2019-06-27T01:23:15.642Z,75.35
2019-06-27T01:25:47.631Z,73.80
2019-06-27T01:28:17.938Z,73.86
2019-06-27T01:30:48.133Z,73.92
2019-06-27T01:33:18.430Z,73.59
2019-06-27T01:35:48.670Z,73.98
2019-06-27T01:38:18.819Z,73.70
2019-06-27T01:40:48.926Z,73.22
2019-06-27T01:43:19.091Z,73.32
2019-06-27T01:45:55.248Z,73.13
2019-06-27T01:48:25.347Z,72.89
2019-06-27T01:50:56.700Z,73.84
2019-06-27T01:53:26.827Z,73.58
2019-06-27T01:55:56.968Z,73.35
2019-06-27T01:58:27.117Z,73.65
2019-06-27T02:00:57.320Z,74.15
2019-06-27T02:03:27.518Z,74.49
2019-06-27T02:05:57.736Z,74.37
2019-06-27T02:08:27.979Z,74.23
2019-06-27T02:10:58.112Z,73.72
2019-06-27T02:13:28.308Z,73.62
2019-06-27T02:15:59.687Z,73.74
2019-06-27T02:18:29.799Z,73.51
2019-06-27T02:21:00.125Z,73.13
2019-06-27T02:23:30.233Z,73.22
2019-06-27T02:26:00.438Z,73.54
2019-06-27T02:28:30.561Z,72.28
2019-06-27T02:31:00.667Z,71.95
2019-06-27T02:33:32.514Z,70.91
2019-06-27T02:36:03.363Z,70.42
2019-06-27T02:38:33.584Z,70.87
2019-06-27T02:41:05.198Z,71.14
2019-06-27T02:43:35.321Z,70.93
2019-06-27T02:46:05.466Z,70.99
2019-06-27T02:48:35.586Z,72.16
2019-06-27T02:51:05.964Z,72.77
2019-06-27T02:53:36.076Z,72.60
2019-06-27T02:56:06.298Z,73.41
2019-06-27T02:58:36.478Z,73.31
2019-06-27T03:01:06.680Z,73.26
2019-06-27T03:03:36.842Z,73.04
2019-06-27T03:06:07.150Z,73.48
2019-06-27T03:08:38.761Z,73.04
2019-06-27T03:11:08.990Z,73.53
2019-06-27T03:13:39.204Z,74.32
2019-06-27T03:16:09.553Z,74.29
2019-06-27T03:18:40.677Z,74.40
2019-06-27T03:21:10.784Z,74.34
2019-06-27T03:23:40.925Z,73.69
2019-06-27T03:26:11.183Z,74.05
2019-06-27T03:28:51.997Z,73.44
2019-06-27T03:31:13.135Z,73.07
2019-06-27T03:33:43.263Z,73.76
2019-06-27T03:36:13.370Z,73.04
2019-06-27T03:38:43.518Z,72.70
2019-06-27T03:41:13.668Z,72.34
2019-06-27T03:43:43.860Z,72.24
2019-06-27T03:46:14.016Z,72.36
2019-06-27T03:48:45.606Z,72.03
2019-06-27T03:51:15.835Z,72.03
2019-06-27T03:53:45.993Z,71.87
2019-06-27T03:56:16.125Z,72.58
2019-06-27T03:58:46.346Z,72.10
2019-06-27T04:01:16.490Z,72.72
2019-06-27T04:03:46.721Z,71.18
2019-06-27T04:06:16.830Z,71.54
2019-06-27T04:08:46.969Z,72.26
2019-06-27T04:11:17.196Z,72.34
2019-06-27T04:13:47.335Z,71.72
2019-06-27T04:16:17.426Z,71.55
2019-06-27T04:18:48.017Z,70.47
2019-06-27T04:21:18.974Z,69.86
2019-06-27T04:23:50.176Z,70.65
2019-06-27T04:26:20.412Z,71.47
2019-06-27T04:28:50.577Z,71.75
2019-06-27T04:31:20.762Z,71.05
2019-06-27T04:33:51.039Z,71.22
2019-06-27T04:36:23.098Z,71.06
2019-06-27T04:38:53.259Z,70.91
2019-06-27T04:41:23.357Z,71.23
2019-06-27T04:43:53.502Z,70.19
2019-06-27T04:46:23.660Z,69.69
2019-06-27T04:48:53.885Z,70.62
2019-06-27T04:51:24.042Z,69.87
2019-06-27T04:53:54.226Z,69.35
2019-06-27T04:56:24.713Z,69.88
2019-06-27T04:58:54.826Z,69.60
2019-06-27T05:01:25.070Z,69.88
2019-06-27T05:03:55.197Z,69.76
2019-06-27T05:06:25.330Z,69.50
2019-06-27T05:08:55.488Z,69.95
2019-06-27T05:11:26.705Z,69.87
2019-06-27T05:13:56.797Z,69.19
2019-06-27T05:16:26.965Z,69.15
2019-06-27T05:18:57.163Z,68.48
2019-06-27T05:21:27.290Z,68.71
2019-06-27T05:23:57.492Z,69.19
2019-06-27T05:26:27.761Z,68.59
2019-06-27T05:28:57.934Z,68.80
2019-06-27T05:31:29.163Z,67.95
2019-06-27T05:33:59.303Z,67.61
2019-06-27T05:36:29.525Z,67.25
2019-06-27T05:38:59.809Z,67.05
2019-06-27T05:41:29.932Z,67.41
2019-06-27T05:44:00.158Z,67.22
2019-06-27T05:46:30.249Z,68.02
2019-06-27T05:49:00.597Z,68.71
2019-06-27T05:51:30.739Z,68.14
2019-06-27T05:54:02.752Z,68.76
2019-06-27T05:56:32.854Z,68.66
2019-06-27T05:59:04.564Z,68.62
2019-06-27T06:01:34.742Z,67.72
2019-06-27T06:04:04.852Z,67.51
2019-06-27T06:06:35.001Z,69.01
2019-06-27T06:09:05.990Z,67.30
2019-06-27T06:11:36.198Z,68.56
2019-06-27T06:14:06.345Z,67.50
2019-06-27T06:16:36.503Z,67.45
2019-06-27T06:19:06.617Z,65.97
2019-06-27T06:21:36.928Z,67.43
2019-06-27T06:24:08.190Z,66.17
2019-06-27T06:26:38.477Z,64.56
2019-06-27T06:29:08.651Z,65.73
2019-06-27T06:31:38.847Z,66.68
2019-06-27T06:34:09.094Z,65.42
2019-06-27T06:36:39.208Z,64.32
2019-06-27T06:39:09.673Z,64.77
2019-06-27T06:41:40.028Z,64.36
2019-06-27T06:44:12.180Z,64.69
2019-06-27T06:46:43.409Z,63.25
2019-06-27T06:49:13.688Z,64.32
2019-06-27T06:51:43.835Z,64.14
2019-06-27T06:54:14.164Z,63.70
2019-06-27T06:56:44.280Z,62.21
2019-06-27T06:59:14.604Z,63.06
2019-06-27T07:01:45.933Z,65.03
2019-06-27T07:04:16.360Z,64.33
2019-06-27T07:06:46.644Z,65.07
2019-06-27T07:09:16.964Z,63.35
2019-06-27T07:11:47.091Z,65.14
2019-06-27T07:14:17.324Z,63.73
2019-06-27T07:16:47.519Z,63.39
2019-06-27T07:19:17.745Z,63.42
2019-06-27T07:21:47.887Z,62.65
2019-06-27T07:24:17.996Z,59.91
2019-06-27T07:26:48.109Z,59.42
2019-06-27T07:29:18.250Z,58.97
2019-06-27T07:31:48.407Z,61.05
2019-06-27T07:34:18.537Z,60.66
2019-06-27T07:36:48.673Z,60.81
2019-06-27T07:39:18.789Z,61.94
2019-06-27T07:41:49.034Z,62.37
2019-06-27T07:44:20.363Z,62.14
2019-06-27T07:46:50.810Z,62.50
2019-06-27T07:49:20.977Z,62.75
2019-06-27T07:51:51.209Z,62.38
2019-06-27T07:54:21.353Z,60.63
2019-06-27T07:56:51.525Z,61.36
2019-06-27T07:59:21.675Z,62.08
2019-06-27T08:01:51.827Z,61.63
2019-06-27T08:04:22.266Z,60.86
2019-06-27T08:06:52.910Z,60.89
2019-06-27T08:09:23.080Z,61.37
2019-06-27T08:11:55.017Z,60.31
2019-06-27T08:14:25.140Z,58.85
2019-06-27T08:16:56.896Z,60.91
2019-06-27T08:19:27.005Z,61.37
2019-06-27T08:21:57.182Z,60.75
2019-06-27T08:24:27.322Z,60.31
2019-06-27T08:26:57.464Z,60.33
2019-06-27T08:29:27.616Z,61.49
2019-06-27T08:31:57.718Z,60.39
2019-06-27T08:34:28.236Z,59.35
2019-06-27T08:36:58.338Z,58.22
2019-06-27T08:39:28.478Z,59.05
2019-06-27T08:41:58.782Z,58.67
2019-06-27T08:44:29.946Z,58.53
2019-06-27T08:47:00.205Z,58.49
2019-06-27T08:49:31.156Z,59.24
2019-06-27T08:52:01.318Z,59.41
2019-06-27T08:54:32.207Z,57.15
2019-06-27T08:57:04.277Z,57.31
2019-06-27T08:59:35.513Z,57.68
2019-06-27T09:02:09.129Z,56.78
2019-06-27T09:04:35.446Z,56.37
2019-06-27T09:07:04.817Z,55.29
2019-06-27T09:09:33.923Z,55.00
2019-06-27T09:12:04.441Z,55.60
2019-06-27T09:14:33.741Z,56.49
2019-06-27T09:17:02.876Z,55.93
2019-06-27T09:19:32.003Z,57.37
2019-06-27T09:22:02.746Z,55.88
2019-06-27T09:24:31.958Z,57.86
2019-06-27T09:27:02.303Z,58.46
2019-06-27T09:29:31.393Z,57.62
2019-06-27T09:32:00.545Z,57.08
2019-06-27T09:34:30.710Z,54.90
2019-06-27T09:37:02.552Z,56.45
2019-06-27T09:39:31.827Z,55.98
2019-06-27T09:42:02.503Z,56.67
2019-06-27T09:44:31.626Z,56.24
2019-06-27T09:47:03.010Z,56.03
2019-06-27T09:49:32.135Z,55.57
2019-06-27T09:52:02.319Z,54.74
2019-06-27T09:54:31.388Z,54.31
2019-06-27T09:57:02.379Z,55.58
2019-06-27T09:59:31.518Z,54.90
2019-06-27T10:02:00.652Z,53.47
2019-06-27T10:04:29.733Z,53.49
2019-06-27T10:06:59.068Z,55.40
2019-06-27T10:09:28.243Z,54.05
2019-06-27T10:11:58.551Z,55.43
2019-06-27T10:14:27.638Z,52.92
2019-06-27T10:16:58.742Z,54.08
2019-06-27T10:19:28.485Z,56.35
2019-06-27T10:21:57.617Z,55.36
2019-06-27T10:24:26.708Z,55.15
2019-06-27T10:26:55.842Z,56.02
2019-06-27T10:29:24.992Z,54.81
2019-06-27T10:31:54.204Z,55.18
2019-06-27T10:34:24.350Z,54.13
2019-06-27T10:36:54.576Z,53.24
2019-06-27T10:39:24.747Z,52.74
2019-06-27T10:41:54.931Z,52.54
2019-06-27T10:44:25.051Z,54.51
2019-06-27T10:46:55.331Z,54.98
2019-06-27T10:49:27.293Z,54.06
2019-06-27T10:51:57.578Z,54.78
2019-06-27T10:54:27.861Z,53.01
2019-06-27T10:56:58.198Z,52.92
2019-06-27T10:59:28.808Z,53.34
2019-06-27T11:02:00.760Z,53.91
2019-06-27T11:04:32.462Z,52.90
2019-06-27T11:07:04.458Z,55.13
2019-06-27T11:09:34.657Z,52.97
2019-06-27T11:12:06.272Z,52.57
2019-06-27T11:14:37.260Z,53.53
2019-06-27T11:17:07.432Z,52.58
2019-06-27T11:19:51.522Z,53.02
2019-06-27T11:22:09.360Z,54.14
2019-06-27T11:24:39.461Z,52.18
2019-06-27T11:27:09.687Z,54.80
2019-06-27T11:29:40.903Z,54.08
2019-06-27T11:32:11.275Z,52.38
2019-06-27T11:34:41.857Z,53.60
2019-06-27T11:37:12.171Z,52.95
2019-06-27T11:39:42.651Z,53.49
2019-06-27T11:42:12.804Z,52.06
2019-06-27T11:44:42.924Z,50.15
2019-06-27T11:47:13.058Z,50.05
2019-06-27T11:49:43.250Z,52.04
2019-06-27T11:52:12.421Z,52.11
2019-06-27T11:54:41.902Z,51.64
2019-06-27T11:57:11.047Z,50.74
2019-06-27T11:59:40.158Z,51.00
2019-06-27T12:02:09.285Z,50.95
2019-06-27T12:04:38.374Z,53.77
2019-06-27T12:07:07.509Z,51.31
2019-06-27T12:09:36.614Z,51.44
2019-06-27T12:12:07.015Z,50.98
2019-06-27T12:14:36.236Z,51.72
2019-06-27T12:17:05.381Z,51.40
2019-06-27T12:19:34.517Z,52.30
2019-06-27T12:22:04.307Z,52.05
2019-06-27T12:24:33.431Z,52.22
2019-06-27T12:27:03.788Z,50.47
2019-06-27T12:29:33.964Z,49.69
2019-06-27T12:32:05.577Z,50.30
2019-06-27T12:34:37.333Z,50.27
2019-06-27T12:37:06.537Z,50.13
2019-06-27T12:39:35.670Z,50.60
2019-06-27T12:42:04.802Z,48.98
2019-06-27T12:44:34.207Z,47.76
2019-06-27T12:47:04.297Z,43.28
2019-06-27T12:49:56.515Z,47.10
2019-06-27T12:52:06.347Z,47.77
2019-06-27T12:54:37.856Z,45.15
2019-06-27T12:57:09.436Z,43.69
2019-06-27T12:59:39.615Z,44.65
2019-06-27T13:02:11.655Z,45.97
2019-06-27T13:04:41.963Z,49.66
2019-06-27T13:07:11.144Z,47.72
2019-06-27T13:09:40.317Z,44.43
2019-06-27T13:12:10.344Z,45.69
2019-06-27T13:14:41.695Z,44.71
2019-06-27T13:17:11.905Z,48.09
2019-06-27T13:19:43.122Z,45.59
2019-06-27T13:22:13.294Z,44.32
2019-06-27T13:24:43.416Z,44.72
2019-06-27T13:27:13.591Z,48.20
2019-06-27T13:29:43.729Z,48.57
2019-06-27T13:32:15.428Z,46.65
2019-06-27T13:34:45.839Z,42.96
2019-06-27T13:37:16.004Z,41.57
2019-06-27T13:39:46.860Z,44.50
2019-06-27T13:42:17.002Z,42.82
2019-06-27T13:44:47.147Z,44.67
2019-06-27T13:47:20.179Z,44.59
2019-06-27T13:49:49.163Z,43.81
2019-06-27T13:52:19.338Z,41.11
2019-06-27T13:54:49.500Z,44.25
2019-06-27T13:57:19.624Z,42.60
2019-06-27T13:59:49.842Z,43.21
2019-06-27T14:02:20.132Z,41.74
2019-06-27T14:04:56.907Z,38.97
2019-06-27T14:07:23.623Z,45.58
2019-06-27T14:09:57.069Z,43.74
2019-06-27T14:12:28.246Z,44.49
2019-06-27T14:15:00.200Z,42.98
2019-06-27T14:17:31.740Z,42.94
2019-06-27T14:20:03.659Z,41.88
2019-06-27T14:22:34.252Z,43.40
2019-06-27T14:25:04.584Z,41.82
2019-06-27T14:27:34.834Z,42.35
2019-06-27T14:30:05.810Z,43.54
2019-06-27T14:32:35.993Z,41.80
2019-06-27T14:35:15.217Z,40.98
2019-06-27T14:37:36.902Z,38.32
2019-06-27T14:40:07.203Z,43.09
2019-06-27T14:42:38.519Z,43.99
2019-06-27T14:45:08.761Z,40.25
2019-06-27T14:47:38.988Z,43.42
2019-06-27T14:50:09.422Z,45.47
2019-06-27T14:52:39.692Z,38.86
2019-06-27T14:55:09.843Z,40.17
2019-06-27T14:57:40.407Z,40.96
2019-06-27T15:00:11.307Z,42.05
2019-06-27T15:02:40.643Z,39.89
2019-06-27T15:05:11.367Z,41.87
2019-06-27T15:07:41.643Z,45.23
2019-06-27T15:10:12.073Z,43.12
2019-06-27T15:12:55.817Z,46.18
2019-06-27T15:15:14.086Z,41.68
2019-06-27T15:17:44.341Z,40.27
2019-06-27T15:20:14.613Z,37.08
2019-06-27T15:22:47.665Z,37.38
2019-06-27T15:25:18.179Z,38.86
2019-06-27T15:27:48.379Z,42.03
2019-06-27T15:30:18.750Z,41.88
2019-06-27T15:32:50.084Z,42.32
2019-06-27T15:35:20.314Z,42.87
2019-06-27T15:37:50.463Z,43.15
2019-06-27T15:40:21.311Z,42.35
2019-06-27T15:42:51.428Z,39.88
2019-06-27T15:45:21.724Z,39.36
2019-06-27T15:47:51.843Z,38.41
2019-06-27T15:50:22.131Z,38.87
2019-06-27T15:52:52.268Z,42.62
2019-06-27T15:55:22.823Z,39.65
2019-06-27T15:57:53.090Z,39.13
2019-06-27T16:00:23.491Z,40.47
2019-06-27T16:02:53.752Z,39.30
2019-06-27T16:05:24.293Z,38.56
2019-06-27T16:07:54.533Z,39.57
2019-06-27T16:10:23.729Z,40.76
2019-06-27T16:12:52.844Z,36.76
2019-06-27T16:15:22.102Z,41.42
2019-06-27T16:17:51.319Z,37.14
2019-06-27T16:20:20.542Z,36.35
2019-06-27T16:22:49.768Z,35.31
2019-06-27T16:25:19.081Z,34.63
2019-06-27T16:27:48.417Z,34.95
2019-06-27T16:30:17.721Z,36.52
2019-06-27T16:32:47.071Z,38.13
2019-06-27T16:35:17.127Z,36.67
2019-06-27T16:37:47.342Z,41.20
2019-06-27T16:40:17.516Z,42.22
2019-06-27T16:42:47.769Z,38.21
2019-06-27T16:45:18.995Z,39.93
2019-06-27T16:47:52.742Z,43.98
2019-06-27T16:50:23.917Z,42.35
2019-06-27T16:52:54.209Z,39.31
2019-06-27T16:55:24.311Z,38.26
2019-06-27T16:57:54.448Z,36.36
2019-06-27T17:00:25.713Z,36.86
2019-06-27T17:02:55.890Z,37.44
2019-06-27T17:05:27.020Z,41.05
2019-06-27T17:07:57.177Z,40.76
2019-06-27T17:10:27.423Z,41.83
2019-06-27T17:12:57.575Z,45.90
2019-06-27T17:15:29.171Z,44.63
2019-06-27T17:17:59.315Z,45.10
2019-06-27T17:20:29.788Z,43.38
2019-06-27T17:22:59.957Z,42.26
2019-06-27T17:25:32.559Z,46.90
2019-06-27T17:28:03.026Z,43.22
2019-06-27T17:30:33.172Z,44.03
2019-06-27T17:33:03.438Z,44.32
2019-06-27T17:35:33.626Z,47.04
2019-06-27T17:38:03.801Z,45.67
2019-06-27T17:40:33.962Z,44.40
2019-06-27T17:43:05.592Z,46.44
2019-06-27T17:45:35.736Z,47.32
2019-06-27T17:48:09.690Z,44.69
2019-06-27T17:50:39.818Z,45.30
2019-06-27T17:53:09.935Z,45.20
2019-06-27T17:55:40.150Z,42.74
2019-06-27T17:58:10.256Z,41.52
2019-06-27T18:00:40.483Z,42.04
2019-06-27T18:03:10.657Z,46.56
2019-06-27T18:05:40.759Z,48.00
2019-06-27T18:08:11.020Z,50.09
2019-06-27T18:10:41.147Z,48.23
2019-06-27T18:13:11.382Z,51.69
2019-06-27T18:15:42.860Z,49.97
2019-06-27T18:18:13.323Z,50.21
2019-06-27T18:20:43.831Z,50.86
2019-06-27T18:23:14.256Z,52.58
2019-06-27T18:25:46.001Z,53.73
2019-06-27T18:28:16.288Z,51.23
2019-06-27T18:30:46.444Z,53.70
2019-06-27T18:33:16.898Z,51.28
2019-06-27T18:35:47.148Z,48.87
2019-06-27T18:38:17.574Z,48.66
2019-06-27T18:40:48.203Z,52.28
2019-06-27T18:43:18.497Z,51.29
2019-06-27T18:45:49.205Z,51.54
2019-06-27T18:48:19.682Z,55.55
2019-06-27T18:50:49.827Z,55.76
2019-06-27T18:53:20.172Z,56.28
2019-06-27T18:55:50.523Z,55.91
2019-06-27T18:58:20.942Z,57.23
2019-06-27T19:00:51.221Z,56.61
2019-06-27T19:03:21.667Z,59.39
2019-06-27T19:05:51.921Z,59.09
2019-06-27T19:08:22.270Z,61.13
2019-06-27T19:10:52.761Z,60.61
2019-06-27T19:13:23.511Z,60.11
2019-06-27T19:15:53.854Z,59.59
2019-06-27T19:18:41.603Z,61.77
2019-06-27T19:21:15.450Z,62.21
2019-06-27T19:24:02.632Z,62.21
2019-06-27T19:26:34.514Z,62.97
2019-06-27T19:29:05.343Z,62.23
2019-06-27T19:31:35.833Z,62.62
2019-06-27T19:34:06.445Z,62.96
2019-06-27T19:36:38.593Z,62.58
2019-06-27T19:39:08.936Z,62.61
2019-06-27T19:41:40.518Z,63.46
2019-06-27T19:44:10.894Z,63.55
2019-06-27T19:46:41.081Z,64.10
2019-06-27T19:49:11.323Z,64.28
2019-06-27T19:51:41.661Z,64.89
2019-06-27T19:54:13.570Z,64.86
2019-06-27T19:56:43.879Z,64.05
2019-06-27T19:59:14.086Z,64.71
2019-06-27T20:01:44.400Z,65.29
2019-06-27T20:04:17.154Z,65.66
2019-06-27T20:06:47.398Z,65.76
2019-06-27T20:09:18.830Z,65.69
2019-06-27T20:11:48.992Z,65.90
2019-06-27T20:14:21.054Z,66.03
2019-06-27T20:16:51.288Z,65.51
2019-06-27T20:19:21.712Z,66.44
2019-06-27T20:21:52.240Z,66.02
2019-06-27T20:24:22.746Z,65.77
2019-06-27T20:26:53.487Z,65.59
2019-06-27T20:29:23.743Z,65.48
2019-06-27T20:31:56.985Z,65.70
2019-06-27T20:34:27.185Z,66.05
2019-06-27T20:36:58.090Z,65.97
2019-06-27T20:39:28.880Z,66.83
2019-06-27T20:41:59.278Z,66.45
2019-06-27T20:44:29.533Z,66.29
2019-06-27T20:46:59.728Z,66.83
2019-06-27T20:49:31.754Z,67.18
2019-06-27T20:52:02.661Z,66.99
2019-06-27T20:54:34.626Z,67.11
2019-06-27T20:57:07.798Z,66.92
2019-06-27T20:59:38.130Z,66.47
2019-06-27T21:02:08.403Z,67.21
2019-06-27T21:04:38.649Z,67.02
2019-06-27T21:07:10.150Z,67.52
2019-06-27T21:09:40.577Z,67.82
2019-06-27T21:12:10.801Z,67.24
2019-06-27T21:14:40.955Z,66.40
2019-06-27T21:17:11.306Z,66.78
2019-06-27T21:19:41.571Z,66.26
2019-06-27T21:22:11.803Z,65.83
2019-06-27T21:24:42.032Z,65.57
2019-06-27T21:27:12.360Z,65.55
2019-06-27T21:29:42.506Z,65.72
2019-06-27T21:32:12.641Z,65.29
2019-06-27T21:34:42.806Z,64.26
2019-06-27T21:37:12.945Z,65.41
2019-06-27T21:39:43.123Z,65.50
2019-06-27T21:42:13.339Z,65.93
2019-06-27T21:44:43.486Z,66.28
2019-06-27T21:47:13.606Z,65.92
2019-06-27T21:49:43.763Z,66.71
2019-06-27T21:52:13.909Z,67.16
2019-06-27T21:54:44.037Z,67.46
2019-06-27T21:57:15.382Z,68.57
2019-06-27T21:59:45.536Z,67.22
2019-06-27T22:02:16.803Z,67.77
2019-06-27T22:04:47.141Z,66.85
2019-06-27T22:07:17.257Z,67.87
2019-06-27T22:09:48.580Z,66.98
2019-06-27T22:12:18.747Z,66.43
2019-06-27T22:14:48.943Z,65.55
2019-06-27T22:17:19.347Z,66.52
2019-06-27T22:19:49.551Z,66.49
2019-06-27T22:22:20.811Z,66.29
2019-06-27T22:24:50.982Z,67.14
2019-06-27T22:27:21.313Z,67.03
2019-06-27T22:29:51.551Z,67.06
2019-06-27T22:32:21.748Z,67.10
2019-06-27T22:34:52.051Z,67.24
2019-06-27T22:37:23.955Z,67.62
2019-06-27T22:40:12.968Z,68.57
2019-06-27T22:43:04.261Z,68.06
2019-06-27T22:45:51.121Z,69.32
2019-06-27T22:48:21.878Z,68.95
2019-06-27T22:51:11.084Z,68.14
2019-06-27T22:53:48.424Z,68.33
2019-06-27T22:56:18.535Z,68.71
2019-06-27T22:58:48.731Z,69.05
2019-06-27T23:01:18.863Z,68.35
2019-06-27T23:03:49.008Z,68.73
2019-06-27T23:06:20.218Z,69.23
2019-06-27T23:08:50.369Z,68.61
2019-06-27T23:11:20.497Z,69.18
2019-06-27T23:13:50.627Z,68.93
2019-06-27T23:16:20.746Z,67.98
2019-06-27T23:18:50.859Z,68.59
2019-06-27T23:21:21.016Z,68.69
2019-06-27T23:23:51.331Z,69.35
2019-06-27T23:26:21.576Z,68.72
2019-06-27T23:28:51.763Z,68.78
2019-06-27T23:31:22.155Z,68.84
2019-06-27T23:33:52.375Z,68.97
2019-06-27T23:36:23.077Z,68.81
2019-06-27T23:38:53.352Z,69.05
2019-06-27T23:41:23.681Z,69.63
2019-06-27T23:43:54.898Z,70.15
2019-06-27T23:46:41.834Z,69.79
2019-06-27T23:49:12.257Z,69.62
2019-06-27T23:51:42.525Z,69.93
2019-06-27T23:54:13.635Z,69.70
2019-06-27T23:56:43.802Z,68.76
2019-06-27T23:59:13.940Z,70.06
